sensor_id;sensor_type;location;lat;lon;timestamp;temperature;humidity
51793;DHT22;37850;53.178;6.376;2022-10-22T00:00:53;13.60;99.90
51793;DHT22;37850;53.178;6.376;2022-10-22T00:03:20;13.60;99.90
51793;DHT22;37850;53.178;6.376;2022-10-22T00:05:46;13.50;99.90
51793;DHT22;37850;53.178;6.376;2022-10-22T00:08:12;13.60;99.90
51793;DHT22;37850;53.178;6.376;2022-10-22T00:10:39;13.60;99.90
51793;DHT22;37850;53.178;6.376;2022-10-22T00:13:04;13.50;99.90
51793;DHT22;37850;53.178;6.376;2022-10-22T00:15:30;13.50;99.90
51793;DHT22;37850;53.178;6.376;2022-10-22T00:17:56;13.50;99.90
51793;DHT22;37850;53.178;6.376;2022-10-22T00:20:22;13.40;99.90
51793;DHT22;37850;53.178;6.376;2022-10-22T00:22:47;13.40;99.90
51793;DHT22;37850;53.178;6.376;2022-10-22T00:25:14;13.40;99.90
51793;DHT22;37850;53.178;6.376;2022-10-22T00:27:39;13.40;99.90
51793;DHT22;37850;53.178;6.376;2022-10-22T00:30:06;13.40;99.90
51793;DHT22;37850;53.178;6.376;2022-10-22T00:32:32;13.40;99.90
51793;DHT22;37850;53.178;6.376;2022-10-22T00:34:57;13.30;99.90
51793;DHT22;37850;53.178;6.376;2022-10-22T00:37:23;13.30;99.90
51793;DHT22;37850;53.178;6.376;2022-10-22T00:39:49;13.30;99.90
51793;DHT22;37850;53.178;6.376;2022-10-22T00:42:23;13.30;99.90
51793;DHT22;37850;53.178;6.376;2022-10-22T00:50:08;13.20;99.90
51793;DHT22;37850;53.178;6.376;2022-10-22T00:52:35;13.20;99.90
51793;DHT22;37850;53.178;6.376;2022-10-22T00:55:01;13.20;99.90
51793;DHT22;37850;53.178;6.376;2022-10-22T00:57:27;13.20;99.90
51793;DHT22;37850;53.178;6.376;2022-10-22T00:59:54;13.20;99.90
51793;DHT22;37850;53.178;6.376;2022-10-22T01:02:21;13.10;99.90
51793;DHT22;37850;53.178;6.376;2022-10-22T01:04:47;13.10;99.90
51793;DHT22;37850;53.178;6.376;2022-10-22T01:07:19;13.10;99.90
51793;DHT22;37850;53.178;6.376;2022-10-22T01:10:26;13.10;99.90
51793;DHT22;37850;53.178;6.376;2022-10-22T01:13:32;13.10;99.90
51793;DHT22;37850;53.178;6.376;2022-10-22T01:18:59;13.10;99.90
51793;DHT22;37850;53.178;6.376;2022-10-22T01:21:35;13.00;99.90
51793;DHT22;37850;53.178;6.376;2022-10-22T01:29:19;13.10;99.90
51793;DHT22;37850;53.178;6.376;2022-10-22T01:32:00;13.00;99.90
51793;DHT22;37850;53.178;6.376;2022-10-22T01:34:27;13.00;99.90
51793;DHT22;37850;53.178;6.376;2022-10-22T01:36:55;13.00;99.90
51793;DHT22;37850;53.178;6.376;2022-10-22T01:39:22;13.00;99.90
51793;DHT22;37850;53.178;6.376;2022-10-22T01:41:48;13.00;99.90
51793;DHT22;37850;53.178;6.376;2022-10-22T01:44:27;13.00;99.90
51793;DHT22;37850;53.178;6.376;2022-10-22T02:04:17;13.00;99.90
51793;DHT22;37850;53.178;6.376;2022-10-22T02:06:45;13.10;99.90
51793;DHT22;37850;53.178;6.376;2022-10-22T02:09:14;13.00;99.90
51793;DHT22;37850;53.178;6.376;2022-10-22T02:11:43;13.00;99.90
51793;DHT22;37850;53.178;6.376;2022-10-22T02:14:10;13.00;99.90
51793;DHT22;37850;53.178;6.376;2022-10-22T02:16:43;13.00;99.90
51793;DHT22;37850;53.178;6.376;2022-10-22T02:20:05;13.00;99.90
51793;DHT22;37850;53.178;6.376;2022-10-22T02:22:04;13.00;99.90
51793;DHT22;37850;53.178;6.376;2022-10-22T02:24:30;13.10;99.90
51793;DHT22;37850;53.178;6.376;2022-10-22T02:27:13;13.00;99.90
51793;DHT22;37850;53.178;6.376;2022-10-22T02:30:00;13.00;99.90
51793;DHT22;37850;53.178;6.376;2022-10-22T02:32:31;13.00;99.90
51793;DHT22;37850;53.178;6.376;2022-10-22T02:34:59;13.00;99.90
51793;DHT22;37850;53.178;6.376;2022-10-22T02:37:26;13.00;99.90
51793;DHT22;37850;53.178;6.376;2022-10-22T02:39:53;13.00;99.90
51793;DHT22;37850;53.178;6.376;2022-10-22T02:42:22;13.00;99.90
51793;DHT22;37850;53.178;6.376;2022-10-22T02:44:48;13.00;99.90
51793;DHT22;37850;53.178;6.376;2022-10-22T02:47:14;13.00;99.90
51793;DHT22;37850;53.178;6.376;2022-10-22T02:49:40;13.00;99.90
51793;DHT22;37850;53.178;6.376;2022-10-22T02:52:05;13.10;99.90
51793;DHT22;37850;53.178;6.376;2022-10-22T02:54:31;13.10;99.90
51793;DHT22;37850;53.178;6.376;2022-10-22T02:56:57;13.10;99.90
51793;DHT22;37850;53.178;6.376;2022-10-22T02:59:23;13.10;99.90
51793;DHT22;37850;53.178;6.376;2022-10-22T03:01:48;13.00;99.90
51793;DHT22;37850;53.178;6.376;2022-10-22T03:04:14;13.00;99.90
51793;DHT22;37850;53.178;6.376;2022-10-22T03:06:40;13.00;99.90
51793;DHT22;37850;53.178;6.376;2022-10-22T03:09:08;13.10;99.90
51793;DHT22;37850;53.178;6.376;2022-10-22T03:11:34;13.10;99.90
51793;DHT22;37850;53.178;6.376;2022-10-22T03:14:00;13.10;99.90
51793;DHT22;37850;53.178;6.376;2022-10-22T03:16:25;13.10;99.90
51793;DHT22;37850;53.178;6.376;2022-10-22T03:18:51;13.10;99.90
51793;DHT22;37850;53.178;6.376;2022-10-22T03:21:26;13.10;99.90
51793;DHT22;37850;53.178;6.376;2022-10-22T03:23:53;13.10;99.90
51793;DHT22;37850;53.178;6.376;2022-10-22T03:26:19;13.00;99.90
51793;DHT22;37850;53.178;6.376;2022-10-22T03:28:45;13.00;99.90
51793;DHT22;37850;53.178;6.376;2022-10-22T03:31:13;13.00;99.90
51793;DHT22;37850;53.178;6.376;2022-10-22T03:33:38;13.00;99.90
51793;DHT22;37850;53.178;6.376;2022-10-22T03:36:06;13.00;99.90
51793;DHT22;37850;53.178;6.376;2022-10-22T03:38:34;12.90;99.90
51793;DHT22;37850;53.178;6.376;2022-10-22T03:41:00;13.00;99.90
51793;DHT22;37850;53.178;6.376;2022-10-22T03:43:26;12.90;99.90
51793;DHT22;37850;53.178;6.376;2022-10-22T03:45:52;13.00;99.90
51793;DHT22;37850;53.178;6.376;2022-10-22T03:48:18;12.90;99.90
51793;DHT22;37850;53.178;6.376;2022-10-22T03:50:43;12.90;99.90
51793;DHT22;37850;53.178;6.376;2022-10-22T03:53:09;12.90;99.90
51793;DHT22;37850;53.178;6.376;2022-10-22T03:55:35;12.90;99.90
51793;DHT22;37850;53.178;6.376;2022-10-22T03:58:03;12.80;99.90
51793;DHT22;37850;53.178;6.376;2022-10-22T04:00:29;12.80;99.90
51793;DHT22;37850;53.178;6.376;2022-10-22T04:02:55;12.80;99.90
51793;DHT22;37850;53.178;6.376;2022-10-22T04:05:22;12.80;99.90
51793;DHT22;37850;53.178;6.376;2022-10-22T04:07:48;12.70;99.90
51793;DHT22;37850;53.178;6.376;2022-10-22T04:10:14;12.80;99.90
51793;DHT22;37850;53.178;6.376;2022-10-22T04:12:39;12.80;99.90
51793;DHT22;37850;53.178;6.376;2022-10-22T04:15:05;12.70;99.90
51793;DHT22;37850;53.178;6.376;2022-10-22T04:17:35;12.70;99.90
51793;DHT22;37850;53.178;6.376;2022-10-22T04:20:02;12.70;99.90
51793;DHT22;37850;53.178;6.376;2022-10-22T04:22:28;12.70;99.90
51793;DHT22;37850;53.178;6.376;2022-10-22T04:24:54;12.70;99.90
51793;DHT22;37850;53.178;6.376;2022-10-22T04:27:20;12.70;99.90
51793;DHT22;37850;53.178;6.376;2022-10-22T04:29:46;12.60;99.90
51793;DHT22;37850;53.178;6.376;2022-10-22T04:32:12;12.60;99.90
51793;DHT22;37850;53.178;6.376;2022-10-22T04:34:37;12.70;99.90
51793;DHT22;37850;53.178;6.376;2022-10-22T04:37:03;12.60;99.90
51793;DHT22;37850;53.178;6.376;2022-10-22T04:39:29;12.60;99.90
51793;DHT22;37850;53.178;6.376;2022-10-22T04:41:55;12.60;99.90
51793;DHT22;37850;53.178;6.376;2022-10-22T04:44:21;12.60;99.90
51793;DHT22;37850;53.178;6.376;2022-10-22T04:46:47;12.60;99.90
51793;DHT22;37850;53.178;6.376;2022-10-22T04:49:13;12.60;99.90
51793;DHT22;37850;53.178;6.376;2022-10-22T04:51:39;12.60;99.90
51793;DHT22;37850;53.178;6.376;2022-10-22T04:54:04;12.60;99.90
51793;DHT22;37850;53.178;6.376;2022-10-22T04:56:31;12.60;99.90
51793;DHT22;37850;53.178;6.376;2022-10-22T04:58:59;12.60;99.90
51793;DHT22;37850;53.178;6.376;2022-10-22T05:01:31;12.60;99.90
51793;DHT22;37850;53.178;6.376;2022-10-22T05:03:58;12.60;99.90
51793;DHT22;37850;53.178;6.376;2022-10-22T05:06:24;12.60;99.90
51793;DHT22;37850;53.178;6.376;2022-10-22T05:08:56;12.60;99.90
51793;DHT22;37850;53.178;6.376;2022-10-22T05:11:26;12.50;99.90
51793;DHT22;37850;53.178;6.376;2022-10-22T05:13:57;12.60;99.90
51793;DHT22;37850;53.178;6.376;2022-10-22T05:16:24;12.60;99.90
51793;DHT22;37850;53.178;6.376;2022-10-22T05:18:49;12.50;99.90
51793;DHT22;37850;53.178;6.376;2022-10-22T05:21:18;12.60;99.90
51793;DHT22;37850;53.178;6.376;2022-10-22T05:23:45;12.60;99.90
51793;DHT22;37850;53.178;6.376;2022-10-22T05:26:12;12.50;99.90
51793;DHT22;37850;53.178;6.376;2022-10-22T05:28:39;12.50;99.90
51793;DHT22;37850;53.178;6.376;2022-10-22T05:31:06;12.60;99.90
51793;DHT22;37850;53.178;6.376;2022-10-22T05:33:33;12.50;99.90
51793;DHT22;37850;53.178;6.376;2022-10-22T05:36:00;12.50;99.90
51793;DHT22;37850;53.178;6.376;2022-10-22T05:38:26;12.50;99.90
51793;DHT22;37850;53.178;6.376;2022-10-22T05:41:03;12.50;99.90
51793;DHT22;37850;53.178;6.376;2022-10-22T05:43:29;12.50;99.90
51793;DHT22;37850;53.178;6.376;2022-10-22T05:45:55;12.50;99.90
51793;DHT22;37850;53.178;6.376;2022-10-22T05:48:22;12.50;99.90
51793;DHT22;37850;53.178;6.376;2022-10-22T05:50:47;12.50;99.90
51793;DHT22;37850;53.178;6.376;2022-10-22T05:53:16;12.50;99.90
51793;DHT22;37850;53.178;6.376;2022-10-22T05:55:43;12.50;99.90
51793;DHT22;37850;53.178;6.376;2022-10-22T05:58:10;12.50;99.90
51793;DHT22;37850;53.178;6.376;2022-10-22T06:00:36;12.60;99.90
51793;DHT22;37850;53.178;6.376;2022-10-22T06:03:03;12.60;99.90
51793;DHT22;37850;53.178;6.376;2022-10-22T06:05:28;12.60;99.90
51793;DHT22;37850;53.178;6.376;2022-10-22T06:07:55;12.60;99.90
51793;DHT22;37850;53.178;6.376;2022-10-22T06:10:22;12.60;99.90
51793;DHT22;37850;53.178;6.376;2022-10-22T06:12:48;12.60;99.90
51793;DHT22;37850;53.178;6.376;2022-10-22T06:15:16;12.60;99.90
51793;DHT22;37850;53.178;6.376;2022-10-22T06:17:46;12.60;99.90
51793;DHT22;37850;53.178;6.376;2022-10-22T06:20:12;12.60;99.90
51793;DHT22;37850;53.178;6.376;2022-10-22T06:22:38;12.60;99.90
51793;DHT22;37850;53.178;6.376;2022-10-22T06:25:04;12.60;99.90
51793;DHT22;37850;53.178;6.376;2022-10-22T06:27:30;12.60;99.90
51793;DHT22;37850;53.178;6.376;2022-10-22T06:29:56;12.60;99.90
51793;DHT22;37850;53.178;6.376;2022-10-22T06:32:22;12.60;99.90
51793;DHT22;37850;53.178;6.376;2022-10-22T06:34:48;12.60;99.90
51793;DHT22;37850;53.178;6.376;2022-10-22T06:37:15;12.60;99.90
51793;DHT22;37850;53.178;6.376;2022-10-22T06:39:41;12.60;99.90
51793;DHT22;37850;53.178;6.376;2022-10-22T06:42:06;12.60;99.90
51793;DHT22;37850;53.178;6.376;2022-10-22T06:44:32;12.60;99.90
51793;DHT22;37850;53.178;6.376;2022-10-22T06:46:58;12.60;99.90
51793;DHT22;37850;53.178;6.376;2022-10-22T06:49:23;12.60;99.90
51793;DHT22;37850;53.178;6.376;2022-10-22T06:51:53;12.70;99.90
51793;DHT22;37850;53.178;6.376;2022-10-22T06:54:20;12.70;99.90
51793;DHT22;37850;53.178;6.376;2022-10-22T06:56:46;12.70;99.90
51793;DHT22;37850;53.178;6.376;2022-10-22T06:59:11;12.70;99.90
51793;DHT22;37850;53.178;6.376;2022-10-22T07:01:38;13.00;99.90
51793;DHT22;37850;53.178;6.376;2022-10-22T07:04:04;12.70;99.90
51793;DHT22;37850;53.178;6.376;2022-10-22T07:06:31;12.80;99.90
51793;DHT22;37850;53.178;6.376;2022-10-22T07:08:57;12.80;99.90
51793;DHT22;37850;53.178;6.376;2022-10-22T07:11:26;12.80;99.90
51793;DHT22;37850;53.178;6.376;2022-10-22T07:13:56;12.80;99.90
51793;DHT22;37850;53.178;6.376;2022-10-22T07:16:23;12.90;99.90
51793;DHT22;37850;53.178;6.376;2022-10-22T07:18:49;12.90;99.90
51793;DHT22;37850;53.178;6.376;2022-10-22T07:21:17;13.00;99.90
51793;DHT22;37850;53.178;6.376;2022-10-22T07:23:46;13.00;99.90
51793;DHT22;37850;53.178;6.376;2022-10-22T07:26:13;13.20;99.90
51793;DHT22;37850;53.178;6.376;2022-10-22T07:28:39;13.00;99.90
51793;DHT22;37850;53.178;6.376;2022-10-22T07:31:10;13.00;99.90
51793;DHT22;37850;53.178;6.376;2022-10-22T07:33:37;13.10;99.90
51793;DHT22;37850;53.178;6.376;2022-10-22T07:36:05;12.90;99.90
51793;DHT22;37850;53.178;6.376;2022-10-22T07:38:31;13.10;99.90
51793;DHT22;37850;53.178;6.376;2022-10-22T07:40:58;13.10;99.90
51793;DHT22;37850;53.178;6.376;2022-10-22T07:43:24;13.20;99.90
51793;DHT22;37850;53.178;6.376;2022-10-22T07:45:50;13.20;99.90
51793;DHT22;37850;53.178;6.376;2022-10-22T07:48:16;13.20;99.90
51793;DHT22;37850;53.178;6.376;2022-10-22T07:50:42;13.20;99.90
51793;DHT22;37850;53.178;6.376;2022-10-22T07:53:07;13.20;99.90
51793;DHT22;37850;53.178;6.376;2022-10-22T07:55:34;13.20;99.90
51793;DHT22;37850;53.178;6.376;2022-10-22T07:58:00;13.30;99.90
51793;DHT22;37850;53.178;6.376;2022-10-22T08:00:26;13.30;99.90
51793;DHT22;37850;53.178;6.376;2022-10-22T08:02:52;13.20;99.90
51793;DHT22;37850;53.178;6.376;2022-10-22T08:05:18;13.30;99.90
51793;DHT22;37850;53.178;6.376;2022-10-22T08:07:44;13.30;99.90
51793;DHT22;37850;53.178;6.376;2022-10-22T08:10:10;13.40;99.90
51793;DHT22;37850;53.178;6.376;2022-10-22T08:12:36;13.30;99.90
51793;DHT22;37850;53.178;6.376;2022-10-22T08:15:02;13.30;99.90
51793;DHT22;37850;53.178;6.376;2022-10-22T08:17:28;13.30;99.90
51793;DHT22;37850;53.178;6.376;2022-10-22T08:19:54;13.40;99.90
51793;DHT22;37850;53.178;6.376;2022-10-22T08:22:19;13.50;99.90
51793;DHT22;37850;53.178;6.376;2022-10-22T08:24:45;13.50;99.90
51793;DHT22;37850;53.178;6.376;2022-10-22T08:27:11;13.50;99.90
51793;DHT22;37850;53.178;6.376;2022-10-22T08:29:37;13.60;99.90
51793;DHT22;37850;53.178;6.376;2022-10-22T08:32:03;13.70;99.90
51793;DHT22;37850;53.178;6.376;2022-10-22T08:34:29;13.80;99.90
51793;DHT22;37850;53.178;6.376;2022-10-22T08:36:55;13.90;99.90
51793;DHT22;37850;53.178;6.376;2022-10-22T08:39:21;14.10;99.90
51793;DHT22;37850;53.178;6.376;2022-10-22T08:50:34;14.30;99.90
51793;DHT22;37850;53.178;6.376;2022-10-22T08:53:05;14.40;99.90
51793;DHT22;37850;53.178;6.376;2022-10-22T08:55:33;14.40;99.90
51793;DHT22;37850;53.178;6.376;2022-10-22T08:58:09;14.50;99.90
51793;DHT22;37850;53.178;6.376;2022-10-22T09:00:45;14.50;99.90
51793;DHT22;37850;53.178;6.376;2022-10-22T09:03:26;14.60;99.90
51793;DHT22;37850;53.178;6.376;2022-10-22T09:06:36;14.60;99.90
51793;DHT22;37850;53.178;6.376;2022-10-22T09:08:45;14.70;99.90
51793;DHT22;37850;53.178;6.376;2022-10-22T09:13:38;14.80;99.90
51793;DHT22;37850;53.178;6.376;2022-10-22T09:24:11;15.00;99.90
51793;DHT22;37850;53.178;6.376;2022-10-22T09:26:39;15.10;99.90
51793;DHT22;37850;53.178;6.376;2022-10-22T09:29:08;15.10;99.90
51793;DHT22;37850;53.178;6.376;2022-10-22T09:31:38;15.20;99.90
51793;DHT22;37850;53.178;6.376;2022-10-22T09:34:03;15.20;99.90
51793;DHT22;37850;53.178;6.376;2022-10-22T09:36:32;15.20;99.90
51793;DHT22;37850;53.178;6.376;2022-10-22T09:38:58;15.20;99.90
51793;DHT22;37850;53.178;6.376;2022-10-22T09:41:27;15.20;99.90
51793;DHT22;37850;53.178;6.376;2022-10-22T09:43:57;15.20;99.90
51793;DHT22;37850;53.178;6.376;2022-10-22T09:46:27;15.20;99.90
51793;DHT22;37850;53.178;6.376;2022-10-22T09:49:08;15.20;99.90
51793;DHT22;37850;53.178;6.376;2022-10-22T09:51:41;15.30;99.90
51793;DHT22;37850;53.178;6.376;2022-10-22T09:54:20;15.30;99.90
51793;DHT22;37850;53.178;6.376;2022-10-22T09:59:37;15.30;99.90
51793;DHT22;37850;53.178;6.376;2022-10-22T10:02:11;15.30;99.90
51793;DHT22;37850;53.178;6.376;2022-10-22T10:04:46;15.30;99.90
51793;DHT22;37850;53.178;6.376;2022-10-22T10:07:16;15.30;99.90
51793;DHT22;37850;53.178;6.376;2022-10-22T10:09:42;15.30;99.90
51793;DHT22;37850;53.178;6.376;2022-10-22T10:20:52;15.40;99.90
51793;DHT22;37850;53.178;6.376;2022-10-22T10:24:03;15.40;99.90
51793;DHT22;37850;53.178;6.376;2022-10-22T10:26:37;15.40;99.90
51793;DHT22;37850;53.178;6.376;2022-10-22T10:37:23;15.50;99.90
51793;DHT22;37850;53.178;6.376;2022-10-22T10:42:37;15.50;99.90
51793;DHT22;37850;53.178;6.376;2022-10-22T10:45:21;15.50;99.90
51793;DHT22;37850;53.178;6.376;2022-10-22T10:56:26;15.50;99.90
51793;DHT22;37850;53.178;6.376;2022-10-22T10:59:05;15.50;99.90
51793;DHT22;37850;53.178;6.376;2022-10-22T11:04:10;15.50;99.90
51793;DHT22;37850;53.178;6.376;2022-10-22T11:06:43;15.50;99.90
51793;DHT22;37850;53.178;6.376;2022-10-22T11:09:29;15.50;99.90
51793;DHT22;37850;53.178;6.376;2022-10-22T11:12:01;15.50;99.90
51793;DHT22;37850;53.178;6.376;2022-10-22T11:14:34;15.50;99.90
51793;DHT22;37850;53.178;6.376;2022-10-22T11:17:05;15.40;99.90
51793;DHT22;37850;53.178;6.376;2022-10-22T11:22:32;15.50;99.90
51793;DHT22;37850;53.178;6.376;2022-10-22T11:27:54;15.60;99.90
51793;DHT22;37850;53.178;6.376;2022-10-22T11:30:23;15.60;99.90
51793;DHT22;37850;53.178;6.376;2022-10-22T11:32:56;15.60;99.90
51793;DHT22;37850;53.178;6.376;2022-10-22T11:35:27;15.70;99.90
51793;DHT22;37850;53.178;6.376;2022-10-22T11:37:56;15.70;99.90
51793;DHT22;37850;53.178;6.376;2022-10-22T11:42:57;15.70;99.90
51793;DHT22;37850;53.178;6.376;2022-10-22T11:55:48;15.60;99.90
51793;DHT22;37850;53.178;6.376;2022-10-22T12:00:55;15.60;99.90
51793;DHT22;37850;53.178;6.376;2022-10-22T12:11:44;15.70;99.90
51793;DHT22;37850;53.178;6.376;2022-10-22T12:14:26;15.70;99.90
51793;DHT22;37850;53.178;6.376;2022-10-22T12:17:09;15.70;99.90
51793;DHT22;37850;53.178;6.376;2022-10-22T12:19:38;15.70;99.90
51793;DHT22;37850;53.178;6.376;2022-10-22T12:24:35;15.70;99.90
51793;DHT22;37850;53.178;6.376;2022-10-22T12:27:02;15.70;99.90
51793;DHT22;37850;53.178;6.376;2022-10-22T12:29:30;15.80;99.90
51793;DHT22;37850;53.178;6.376;2022-10-22T12:31:56;15.80;99.90
51793;DHT22;37850;53.178;6.376;2022-10-22T12:34:26;15.70;99.90
51793;DHT22;37850;53.178;6.376;2022-10-22T12:36:53;15.80;99.90
51793;DHT22;37850;53.178;6.376;2022-10-22T12:39:23;15.70;99.90
51793;DHT22;37850;53.178;6.376;2022-10-22T12:41:51;15.80;99.90
51793;DHT22;37850;53.178;6.376;2022-10-22T12:44:18;15.70;99.90
51793;DHT22;37850;53.178;6.376;2022-10-22T12:46:46;15.70;99.90
51793;DHT22;37850;53.178;6.376;2022-10-22T12:49:24;15.70;99.90
51793;DHT22;37850;53.178;6.376;2022-10-22T12:52:01;15.70;99.90
51793;DHT22;37850;53.178;6.376;2022-10-22T12:54:30;15.70;99.90
51793;DHT22;37850;53.178;6.376;2022-10-22T12:56:56;15.70;99.90
51793;DHT22;37850;53.178;6.376;2022-10-22T12:59:26;15.80;99.90
51793;DHT22;37850;53.178;6.376;2022-10-22T13:01:54;15.80;99.90
51793;DHT22;37850;53.178;6.376;2022-10-22T13:04:35;15.80;99.90
51793;DHT22;37850;53.178;6.376;2022-10-22T13:09:44;15.90;99.90
51793;DHT22;37850;53.178;6.376;2022-10-22T13:12:11;16.00;99.90
51793;DHT22;37850;53.178;6.376;2022-10-22T13:14:46;16.00;99.90
51793;DHT22;37850;53.178;6.376;2022-10-22T13:17:16;16.00;99.90
51793;DHT22;37850;53.178;6.376;2022-10-22T13:22:35;16.10;99.90
51793;DHT22;37850;53.178;6.376;2022-10-22T13:25:18;16.20;99.90
51793;DHT22;37850;53.178;6.376;2022-10-22T13:27:53;16.20;99.90
51793;DHT22;37850;53.178;6.376;2022-10-22T13:30:31;16.30;99.90
51793;DHT22;37850;53.178;6.376;2022-10-22T13:33:01;16.30;99.90
51793;DHT22;37850;53.178;6.376;2022-10-22T13:35:31;16.30;99.90
51793;DHT22;37850;53.178;6.376;2022-10-22T13:37:59;16.30;99.90
51793;DHT22;37850;53.178;6.376;2022-10-22T13:40:25;16.30;99.90
51793;DHT22;37850;53.178;6.376;2022-10-22T13:42:51;16.30;99.90
51793;DHT22;37850;53.178;6.376;2022-10-22T13:45:17;16.30;99.90
51793;DHT22;37850;53.178;6.376;2022-10-22T13:47:49;16.20;99.90
51793;DHT22;37850;53.178;6.376;2022-10-22T13:50:17;16.20;99.90
51793;DHT22;37850;53.178;6.376;2022-10-22T13:57:50;16.30;99.90
51793;DHT22;37850;53.178;6.376;2022-10-22T14:00:19;16.30;99.90
51793;DHT22;37850;53.178;6.376;2022-10-22T14:02:47;16.30;99.90
51793;DHT22;37850;53.178;6.376;2022-10-22T14:05:15;16.40;99.90
51793;DHT22;37850;53.178;6.376;2022-10-22T14:07:45;16.30;99.90
51793;DHT22;37850;53.178;6.376;2022-10-22T14:12:41;16.30;99.90
51793;DHT22;37850;53.178;6.376;2022-10-22T14:15:09;16.30;99.90
51793;DHT22;37850;53.178;6.376;2022-10-22T14:17:36;16.30;99.90
51793;DHT22;37850;53.178;6.376;2022-10-22T14:20:02;16.30;99.90
51793;DHT22;37850;53.178;6.376;2022-10-22T14:22:28;16.30;99.90
51793;DHT22;37850;53.178;6.376;2022-10-22T14:24:55;16.30;99.90
51793;DHT22;37850;53.178;6.376;2022-10-22T14:27:20;16.30;99.90
51793;DHT22;37850;53.178;6.376;2022-10-22T14:29:46;16.30;99.90
51793;DHT22;37850;53.178;6.376;2022-10-22T14:32:16;16.30;99.90
51793;DHT22;37850;53.178;6.376;2022-10-22T14:34:46;16.30;99.90
51793;DHT22;37850;53.178;6.376;2022-10-22T14:37:18;16.20;99.90
51793;DHT22;37850;53.178;6.376;2022-10-22T14:39:45;16.20;99.90
51793;DHT22;37850;53.178;6.376;2022-10-22T14:42:16;16.20;99.90
51793;DHT22;37850;53.178;6.376;2022-10-22T14:44:45;16.10;99.90
51793;DHT22;37850;53.178;6.376;2022-10-22T14:47:11;16.10;99.90
51793;DHT22;37850;53.178;6.376;2022-10-22T14:49:37;16.10;99.90
51793;DHT22;37850;53.178;6.376;2022-10-22T14:52:02;16.10;99.90
51793;DHT22;37850;53.178;6.376;2022-10-22T14:54:28;16.10;99.90
51793;DHT22;37850;53.178;6.376;2022-10-22T14:56:54;16.00;99.90
51793;DHT22;37850;53.178;6.376;2022-10-22T14:59:20;15.90;99.90
51793;DHT22;37850;53.178;6.376;2022-10-22T15:01:45;15.90;99.90
51793;DHT22;37850;53.178;6.376;2022-10-22T15:04:11;15.90;99.90
51793;DHT22;37850;53.178;6.376;2022-10-22T15:06:36;15.90;99.90
51793;DHT22;37850;53.178;6.376;2022-10-22T15:09:02;15.90;99.90
51793;DHT22;37850;53.178;6.376;2022-10-22T15:11:28;15.90;99.90
51793;DHT22;37850;53.178;6.376;2022-10-22T15:13:54;15.90;99.90
51793;DHT22;37850;53.178;6.376;2022-10-22T15:16:19;15.80;99.90
51793;DHT22;37850;53.178;6.376;2022-10-22T15:18:45;15.90;99.90
51793;DHT22;37850;53.178;6.376;2022-10-22T15:21:15;15.80;99.90
51793;DHT22;37850;53.178;6.376;2022-10-22T15:23:40;15.80;99.90
51793;DHT22;37850;53.178;6.376;2022-10-22T15:26:08;15.80;99.90
51793;DHT22;37850;53.178;6.376;2022-10-22T15:28:35;15.80;99.90
51793;DHT22;37850;53.178;6.376;2022-10-22T15:31:02;15.70;99.90
51793;DHT22;37850;53.178;6.376;2022-10-22T15:33:28;15.70;99.90
51793;DHT22;37850;53.178;6.376;2022-10-22T15:35:54;15.60;99.90
51793;DHT22;37850;53.178;6.376;2022-10-22T15:38:21;15.50;99.90
51793;DHT22;37850;53.178;6.376;2022-10-22T15:40:46;15.50;99.90
51793;DHT22;37850;53.178;6.376;2022-10-22T15:43:13;15.50;99.90
51793;DHT22;37850;53.178;6.376;2022-10-22T15:45:39;15.40;99.90
51793;DHT22;37850;53.178;6.376;2022-10-22T15:48:05;15.40;99.90
51793;DHT22;37850;53.178;6.376;2022-10-22T15:50:31;15.40;99.90
51793;DHT22;37850;53.178;6.376;2022-10-22T15:52:56;15.40;99.90
51793;DHT22;37850;53.178;6.376;2022-10-22T15:55:22;15.30;99.90
51793;DHT22;37850;53.178;6.376;2022-10-22T15:57:48;15.30;99.90
51793;DHT22;37850;53.178;6.376;2022-10-22T16:00:22;15.30;99.90
51793;DHT22;37850;53.178;6.376;2022-10-22T16:02:49;15.20;99.90
51793;DHT22;37850;53.178;6.376;2022-10-22T16:05:15;15.20;99.90
51793;DHT22;37850;53.178;6.376;2022-10-22T16:07:41;15.10;99.90
51793;DHT22;37850;53.178;6.376;2022-10-22T16:10:07;15.10;99.90
51793;DHT22;37850;53.178;6.376;2022-10-22T16:12:33;15.10;99.90
51793;DHT22;37850;53.178;6.376;2022-10-22T16:15:00;15.00;99.90
51793;DHT22;37850;53.178;6.376;2022-10-22T16:17:26;15.00;99.90
51793;DHT22;37850;53.178;6.376;2022-10-22T16:19:52;14.90;99.90
51793;DHT22;37850;53.178;6.376;2022-10-22T16:22:18;14.90;99.90
51793;DHT22;37850;53.178;6.376;2022-10-22T16:24:43;15.00;99.90
51793;DHT22;37850;53.178;6.376;2022-10-22T16:27:09;14.80;99.90
51793;DHT22;37850;53.178;6.376;2022-10-22T16:29:38;14.80;99.90
51793;DHT22;37850;53.178;6.376;2022-10-22T16:32:04;14.70;99.90
51793;DHT22;37850;53.178;6.376;2022-10-22T16:34:30;14.70;99.90
51793;DHT22;37850;53.178;6.376;2022-10-22T16:36:56;14.60;99.90
51793;DHT22;37850;53.178;6.376;2022-10-22T16:39:22;14.60;99.90
51793;DHT22;37850;53.178;6.376;2022-10-22T16:41:48;14.60;99.90
51793;DHT22;37850;53.178;6.376;2022-10-22T16:44:14;14.60;99.90
51793;DHT22;37850;53.178;6.376;2022-10-22T16:46:39;14.50;99.90
51793;DHT22;37850;53.178;6.376;2022-10-22T16:49:05;14.50;99.90
51793;DHT22;37850;53.178;6.376;2022-10-22T16:51:31;14.50;99.90
51793;DHT22;37850;53.178;6.376;2022-10-22T16:53:57;14.50;99.90
51793;DHT22;37850;53.178;6.376;2022-10-22T16:56:24;14.40;99.90
51793;DHT22;37850;53.178;6.376;2022-10-22T16:58:52;14.40;99.90
51793;DHT22;37850;53.178;6.376;2022-10-22T17:01:20;14.40;99.90
51793;DHT22;37850;53.178;6.376;2022-10-22T17:03:46;14.30;99.90
51793;DHT22;37850;53.178;6.376;2022-10-22T17:06:13;14.30;99.90
51793;DHT22;37850;53.178;6.376;2022-10-22T17:08:39;14.30;99.90
51793;DHT22;37850;53.178;6.376;2022-10-22T17:11:12;14.20;99.90
51793;DHT22;37850;53.178;6.376;2022-10-22T17:13:39;14.20;99.90
51793;DHT22;37850;53.178;6.376;2022-10-22T17:16:08;14.20;99.90
51793;DHT22;37850;53.178;6.376;2022-10-22T17:18:36;14.10;99.90
51793;DHT22;37850;53.178;6.376;2022-10-22T17:21:03;14.10;99.90
51793;DHT22;37850;53.178;6.376;2022-10-22T17:23:29;14.10;99.90
51793;DHT22;37850;53.178;6.376;2022-10-22T17:25:59;14.00;99.90
51793;DHT22;37850;53.178;6.376;2022-10-22T17:28:26;14.00;99.90
51793;DHT22;37850;53.178;6.376;2022-10-22T17:31:05;14.00;99.90
51793;DHT22;37850;53.178;6.376;2022-10-22T17:33:32;14.00;99.90
51793;DHT22;37850;53.178;6.376;2022-10-22T17:35:58;14.00;99.90
51793;DHT22;37850;53.178;6.376;2022-10-22T17:38:24;13.90;99.90
51793;DHT22;37850;53.178;6.376;2022-10-22T17:40:50;13.90;99.90
51793;DHT22;37850;53.178;6.376;2022-10-22T17:43:15;13.90;99.90
51793;DHT22;37850;53.178;6.376;2022-10-22T17:45:41;13.80;99.90